sensor_id;sensor_type;location;lat;lon;timestamp;temperature;humidity
23729;DHT22;12045;60.214;24.724;2023-09-19T00:00:58;13.00;99.90
23729;DHT22;12045;60.214;24.724;2023-09-19T00:03:26;13.00;99.90
23729;DHT22;12045;60.214;24.724;2023-09-19T00:05:58;13.00;99.90
23729;DHT22;12045;60.214;24.724;2023-09-19T00:08:25;13.00;99.90
23729;DHT22;12045;60.214;24.724;2023-09-19T00:10:54;13.00;99.90
23729;DHT22;12045;60.214;24.724;2023-09-19T00:13:22;12.90;99.90
23729;DHT22;12045;60.214;24.724;2023-09-19T00:15:51;12.90;99.90
23729;DHT22;12045;60.214;24.724;2023-09-19T00:18:19;12.90;99.90
23729;DHT22;12045;60.214;24.724;2023-09-19T00:20:51;13.00;99.90
23729;DHT22;12045;60.214;24.724;2023-09-19T00:23:20;13.00;99.90
23729;DHT22;12045;60.214;24.724;2023-09-19T00:25:48;12.90;99.90
23729;DHT22;12045;60.214;24.724;2023-09-19T00:28:16;12.90;99.90
23729;DHT22;12045;60.214;24.724;2023-09-19T00:30:45;12.90;99.90
23729;DHT22;12045;60.214;24.724;2023-09-19T00:33:23;12.90;99.90
23729;DHT22;12045;60.214;24.724;2023-09-19T00:35:53;12.90;99.90
23729;DHT22;12045;60.214;24.724;2023-09-19T00:38:22;12.90;99.90
23729;DHT22;12045;60.214;24.724;2023-09-19T00:40:54;12.90;99.90
23729;DHT22;12045;60.214;24.724;2023-09-19T00:43:27;12.90;99.90
23729;DHT22;12045;60.214;24.724;2023-09-19T00:45:56;12.90;99.90
23729;DHT22;12045;60.214;24.724;2023-09-19T00:48:25;12.90;99.90
23729;DHT22;12045;60.214;24.724;2023-09-19T00:50:59;12.80;99.90
23729;DHT22;12045;60.214;24.724;2023-09-19T00:53:31;12.80;99.90
23729;DHT22;12045;60.214;24.724;2023-09-19T00:55:58;12.90;99.90
23729;DHT22;12045;60.214;24.724;2023-09-19T00:58:26;12.90;99.90
23729;DHT22;12045;60.214;24.724;2023-09-19T01:00:59;12.90;99.90
23729;DHT22;12045;60.214;24.724;2023-09-19T01:03:27;13.00;99.90
23729;DHT22;12045;60.214;24.724;2023-09-19T01:05:55;13.00;99.90
23729;DHT22;12045;60.214;24.724;2023-09-19T01:08:23;13.00;99.90
23729;DHT22;12045;60.214;24.724;2023-09-19T01:11:43;13.00;99.90
23729;DHT22;12045;60.214;24.724;2023-09-19T01:16:35;13.00;99.90
23729;DHT22;12045;60.214;24.724;2023-09-19T01:28:34;13.10;99.90
23729;DHT22;12045;60.214;24.724;2023-09-19T01:31:10;13.10;99.90
23729;DHT22;12045;60.214;24.724;2023-09-19T01:33:59;13.10;99.90
23729;DHT22;12045;60.214;24.724;2023-09-19T01:36:29;13.10;99.90
23729;DHT22;12045;60.214;24.724;2023-09-19T01:38:57;13.10;99.90
23729;DHT22;12045;60.214;24.724;2023-09-19T01:47:37;13.10;99.90
23729;DHT22;12045;60.214;24.724;2023-09-19T01:52:57;13.20;99.90
23729;DHT22;12045;60.214;24.724;2023-09-19T01:55:29;13.20;99.90
23729;DHT22;12045;60.214;24.724;2023-09-19T01:58:14;13.10;99.90
23729;DHT22;12045;60.214;24.724;2023-09-19T02:00:45;13.10;99.90
23729;DHT22;12045;60.214;24.724;2023-09-19T02:03:15;13.10;99.90
23729;DHT22;12045;60.214;24.724;2023-09-19T02:05:51;13.20;99.90
23729;DHT22;12045;60.214;24.724;2023-09-19T02:08:21;13.20;99.90
23729;DHT22;12045;60.214;24.724;2023-09-19T02:10:51;13.20;99.90
23729;DHT22;12045;60.214;24.724;2023-09-19T02:13:21;13.20;99.90
23729;DHT22;12045;60.214;24.724;2023-09-19T02:15:50;13.30;99.90
23729;DHT22;12045;60.214;24.724;2023-09-19T02:18:17;13.30;99.90
23729;DHT22;12045;60.214;24.724;2023-09-19T02:20:45;13.40;99.90
23729;DHT22;12045;60.214;24.724;2023-09-19T02:23:13;13.40;99.90
23729;DHT22;12045;60.214;24.724;2023-09-19T02:25:42;13.40;99.90
23729;DHT22;12045;60.214;24.724;2023-09-19T02:28:10;13.50;99.90
23729;DHT22;12045;60.214;24.724;2023-09-19T02:30:39;13.50;99.90
23729;DHT22;12045;60.214;24.724;2023-09-19T02:33:06;13.50;99.90
23729;DHT22;12045;60.214;24.724;2023-09-19T02:35:35;13.60;99.90
23729;DHT22;12045;60.214;24.724;2023-09-19T02:38:03;13.60;99.90
23729;DHT22;12045;60.214;24.724;2023-09-19T02:40:34;13.70;99.90
23729;DHT22;12045;60.214;24.724;2023-09-19T02:43:04;13.70;99.90
23729;DHT22;12045;60.214;24.724;2023-09-19T02:45:32;13.80;99.90
23729;DHT22;12045;60.214;24.724;2023-09-19T02:47:59;13.80;99.90
23729;DHT22;12045;60.214;24.724;2023-09-19T02:50:27;13.80;99.90
23729;DHT22;12045;60.214;24.724;2023-09-19T02:52:55;13.90;99.90
23729;DHT22;12045;60.214;24.724;2023-09-19T02:55:23;13.90;99.90
23729;DHT22;12045;60.214;24.724;2023-09-19T02:57:54;13.90;99.90
23729;DHT22;12045;60.214;24.724;2023-09-19T03:00:22;13.90;99.90
23729;DHT22;12045;60.214;24.724;2023-09-19T03:02:52;13.90;99.90
23729;DHT22;12045;60.214;24.724;2023-09-19T03:05:22;14.00;99.90
23729;DHT22;12045;60.214;24.724;2023-09-19T03:07:50;14.00;99.90
23729;DHT22;12045;60.214;24.724;2023-09-19T03:10:20;14.00;99.90
23729;DHT22;12045;60.214;24.724;2023-09-19T03:12:48;14.10;99.90
23729;DHT22;12045;60.214;24.724;2023-09-19T03:15:16;14.10;99.90
23729;DHT22;12045;60.214;24.724;2023-09-19T03:17:47;14.10;99.90
23729;DHT22;12045;60.214;24.724;2023-09-19T03:20:15;14.10;99.90
23729;DHT22;12045;60.214;24.724;2023-09-19T03:22:46;14.20;99.90
23729;DHT22;12045;60.214;24.724;2023-09-19T03:25:13;14.20;99.90
23729;DHT22;12045;60.214;24.724;2023-09-19T03:27:43;14.20;99.90
23729;DHT22;12045;60.214;24.724;2023-09-19T03:30:11;14.30;99.90
23729;DHT22;12045;60.214;24.724;2023-09-19T03:32:45;14.30;99.90
23729;DHT22;12045;60.214;24.724;2023-09-19T03:35:13;14.30;99.90
23729;DHT22;12045;60.214;24.724;2023-09-19T03:37:42;14.30;99.90
23729;DHT22;12045;60.214;24.724;2023-09-19T03:40:11;14.30;99.90
23729;DHT22;12045;60.214;24.724;2023-09-19T03:42:40;14.30;99.90
23729;DHT22;12045;60.214;24.724;2023-09-19T03:45:08;14.30;99.90
23729;DHT22;12045;60.214;24.724;2023-09-19T03:47:40;14.50;99.90
23729;DHT22;12045;60.214;24.724;2023-09-19T03:50:08;14.40;99.90
23729;DHT22;12045;60.214;24.724;2023-09-19T03:52:38;14.40;99.90
23729;DHT22;12045;60.214;24.724;2023-09-19T03:55:06;14.50;99.90
23729;DHT22;12045;60.214;24.724;2023-09-19T03:57:34;14.60;99.90
23729;DHT22;12045;60.214;24.724;2023-09-19T04:00:03;14.60;99.90
23729;DHT22;12045;60.214;24.724;2023-09-19T04:02:33;14.60;99.90
23729;DHT22;12045;60.214;24.724;2023-09-19T04:05:00;14.60;99.90
23729;DHT22;12045;60.214;24.724;2023-09-19T04:07:28;14.60;99.90
23729;DHT22;12045;60.214;24.724;2023-09-19T04:09:56;14.60;99.90
23729;DHT22;12045;60.214;24.724;2023-09-19T04:12:24;14.70;99.90
23729;DHT22;12045;60.214;24.724;2023-09-19T04:14:51;14.70;99.90
23729;DHT22;12045;60.214;24.724;2023-09-19T04:17:19;14.70;99.90
23729;DHT22;12045;60.214;24.724;2023-09-19T04:19:46;14.80;99.90
23729;DHT22;12045;60.214;24.724;2023-09-19T04:22:15;14.80;99.90
23729;DHT22;12045;60.214;24.724;2023-09-19T04:24:43;14.70;99.90
23729;DHT22;12045;60.214;24.724;2023-09-19T04:27:11;14.70;99.90
23729;DHT22;12045;60.214;24.724;2023-09-19T04:29:42;14.80;99.90
23729;DHT22;12045;60.214;24.724;2023-09-19T04:32:10;14.70;99.90
23729;DHT22;12045;60.214;24.724;2023-09-19T04:34:37;14.70;99.90
23729;DHT22;12045;60.214;24.724;2023-09-19T04:37:05;14.70;99.90
23729;DHT22;12045;60.214;24.724;2023-09-19T04:39:33;14.70;99.90
23729;DHT22;12045;60.214;24.724;2023-09-19T04:42:01;14.60;99.90
23729;DHT22;12045;60.214;24.724;2023-09-19T04:44:30;14.60;99.90
23729;DHT22;12045;60.214;24.724;2023-09-19T04:46:58;14.60;99.90
23729;DHT22;12045;60.214;24.724;2023-09-19T04:49:27;14.70;99.90
23729;DHT22;12045;60.214;24.724;2023-09-19T04:51:55;14.70;99.90
23729;DHT22;12045;60.214;24.724;2023-09-19T04:54:23;14.70;99.90
23729;DHT22;12045;60.214;24.724;2023-09-19T04:56:50;14.70;99.90
23729;DHT22;12045;60.214;24.724;2023-09-19T04:59:18;14.70;99.90
23729;DHT22;12045;60.214;24.724;2023-09-19T05:01:45;14.70;99.90
23729;DHT22;12045;60.214;24.724;2023-09-19T05:04:14;14.80;99.90
23729;DHT22;12045;60.214;24.724;2023-09-19T05:06:42;14.80;99.90
23729;DHT22;12045;60.214;24.724;2023-09-19T05:09:13;14.80;99.90
23729;DHT22;12045;60.214;24.724;2023-09-19T05:11:40;14.80;99.90
23729;DHT22;12045;60.214;24.724;2023-09-19T05:14:08;14.80;99.90
23729;DHT22;12045;60.214;24.724;2023-09-19T05:16:35;14.80;99.90
23729;DHT22;12045;60.214;24.724;2023-09-19T05:19:03;14.80;99.90
23729;DHT22;12045;60.214;24.724;2023-09-19T05:21:30;14.80;99.90
23729;DHT22;12045;60.214;24.724;2023-09-19T05:23:58;14.80;99.90
23729;DHT22;12045;60.214;24.724;2023-09-19T05:26:26;14.80;99.90
23729;DHT22;12045;60.214;24.724;2023-09-19T05:28:54;14.80;99.90
23729;DHT22;12045;60.214;24.724;2023-09-19T05:31:21;14.80;99.90
23729;DHT22;12045;60.214;24.724;2023-09-19T05:33:50;14.70;99.90
23729;DHT22;12045;60.214;24.724;2023-09-19T05:36:18;14.80;99.90
23729;DHT22;12045;60.214;24.724;2023-09-19T05:38:45;14.80;99.90
23729;DHT22;12045;60.214;24.724;2023-09-19T05:41:17;14.90;99.90
23729;DHT22;12045;60.214;24.724;2023-09-19T05:43:45;14.90;99.90
23729;DHT22;12045;60.214;24.724;2023-09-19T05:46:12;14.80;99.90
23729;DHT22;12045;60.214;24.724;2023-09-19T05:48:40;14.90;99.90
23729;DHT22;12045;60.214;24.724;2023-09-19T05:51:09;14.90;99.90
23729;DHT22;12045;60.214;24.724;2023-09-19T05:53:37;14.90;99.90
23729;DHT22;12045;60.214;24.724;2023-09-19T05:56:05;14.90;99.90
23729;DHT22;12045;60.214;24.724;2023-09-19T05:58:33;15.00;99.90
23729;DHT22;12045;60.214;24.724;2023-09-19T06:01:00;15.00;99.90
23729;DHT22;12045;60.214;24.724;2023-09-19T06:03:29;15.00;99.90
23729;DHT22;12045;60.214;24.724;2023-09-19T06:05:57;15.00;99.90
23729;DHT22;12045;60.214;24.724;2023-09-19T06:08:25;15.00;99.90
23729;DHT22;12045;60.214;24.724;2023-09-19T06:10:53;15.10;99.90
23729;DHT22;12045;60.214;24.724;2023-09-19T06:13:21;15.10;99.90
23729;DHT22;12045;60.214;24.724;2023-09-19T06:15:49;15.10;99.90
23729;DHT22;12045;60.214;24.724;2023-09-19T06:18:17;15.10;99.90
23729;DHT22;12045;60.214;24.724;2023-09-19T06:20:47;15.10;99.90
23729;DHT22;12045;60.214;24.724;2023-09-19T06:23:16;15.10;99.90
23729;DHT22;12045;60.214;24.724;2023-09-19T06:25:55;15.10;99.90
23729;DHT22;12045;60.214;24.724;2023-09-19T06:28:28;15.00;99.90
23729;DHT22;12045;60.214;24.724;2023-09-19T06:30:56;15.00;99.90
23729;DHT22;12045;60.214;24.724;2023-09-19T06:33:24;15.00;99.90
23729;DHT22;12045;60.214;24.724;2023-09-19T06:35:52;15.00;99.90
23729;DHT22;12045;60.214;24.724;2023-09-19T06:38:25;15.00;99.90
23729;DHT22;12045;60.214;24.724;2023-09-19T06:40:53;15.00;99.90
23729;DHT22;12045;60.214;24.724;2023-09-19T06:43:21;15.00;99.90
23729;DHT22;12045;60.214;24.724;2023-09-19T06:45:49;15.10;99.90
23729;DHT22;12045;60.214;24.724;2023-09-19T06:48:19;15.10;99.90
23729;DHT22;12045;60.214;24.724;2023-09-19T06:50:48;15.10;99.90
23729;DHT22;12045;60.214;24.724;2023-09-19T06:53:16;15.20;99.90
23729;DHT22;12045;60.214;24.724;2023-09-19T06:55:44;15.20;99.90
23729;DHT22;12045;60.214;24.724;2023-09-19T06:58:13;15.30;99.90
23729;DHT22;12045;60.214;24.724;2023-09-19T07:00:41;15.20;99.90
23729;DHT22;12045;60.214;24.724;2023-09-19T07:03:09;15.20;99.90
23729;DHT22;12045;60.214;24.724;2023-09-19T07:05:40;15.30;99.90
23729;DHT22;12045;60.214;24.724;2023-09-19T07:08:10;15.40;99.90
23729;DHT22;12045;60.214;24.724;2023-09-19T07:10:42;15.40;99.90
23729;DHT22;12045;60.214;24.724;2023-09-19T07:13:17;15.40;99.90
23729;DHT22;12045;60.214;24.724;2023-09-19T07:15:45;15.40;99.90
23729;DHT22;12045;60.214;24.724;2023-09-19T07:18:17;15.50;99.90
23729;DHT22;12045;60.214;24.724;2023-09-19T07:20:46;15.60;99.90
23729;DHT22;12045;60.214;24.724;2023-09-19T07:23:18;15.60;99.90
23729;DHT22;12045;60.214;24.724;2023-09-19T07:25:46;15.60;99.90
23729;DHT22;12045;60.214;24.724;2023-09-19T07:28:14;15.70;99.90
23729;DHT22;12045;60.214;24.724;2023-09-19T07:30:42;15.70;99.90
23729;DHT22;12045;60.214;24.724;2023-09-19T07:33:10;15.80;99.90
23729;DHT22;12045;60.214;24.724;2023-09-19T07:35:39;15.80;99.90
23729;DHT22;12045;60.214;24.724;2023-09-19T07:38:08;15.80;99.90
23729;DHT22;12045;60.214;24.724;2023-09-19T07:40:36;15.70;99.90
23729;DHT22;12045;60.214;24.724;2023-09-19T07:43:04;15.70;99.90
23729;DHT22;12045;60.214;24.724;2023-09-19T07:45:33;15.70;99.90
23729;DHT22;12045;60.214;24.724;2023-09-19T07:48:01;15.80;99.90
23729;DHT22;12045;60.214;24.724;2023-09-19T07:50:34;15.70;99.90
23729;DHT22;12045;60.214;24.724;2023-09-19T07:53:04;15.70;99.90
23729;DHT22;12045;60.214;24.724;2023-09-19T07:55:32;15.70;99.90
23729;DHT22;12045;60.214;24.724;2023-09-19T07:58:01;15.60;99.90
23729;DHT22;12045;60.214;24.724;2023-09-19T08:00:31;15.50;99.90
23729;DHT22;12045;60.214;24.724;2023-09-19T08:03:02;15.50;99.90
23729;DHT22;12045;60.214;24.724;2023-09-19T08:05:44;15.50;99.90
23729;DHT22;12045;60.214;24.724;2023-09-19T08:08:13;15.40;99.90
23729;DHT22;12045;60.214;24.724;2023-09-19T08:10:42;15.40;99.90
23729;DHT22;12045;60.214;24.724;2023-09-19T08:13:15;15.30;99.90
23729;DHT22;12045;60.214;24.724;2023-09-19T08:15:44;15.20;99.90
23729;DHT22;12045;60.214;24.724;2023-09-19T08:18:26;15.20;99.90
23729;DHT22;12045;60.214;24.724;2023-09-19T08:20:57;15.20;99.90
23729;DHT22;12045;60.214;24.724;2023-09-19T08:23:27;15.10;99.90
23729;DHT22;12045;60.214;24.724;2023-09-19T08:25:56;15.10;99.90
23729;DHT22;12045;60.214;24.724;2023-09-19T08:28:25;15.10;99.90
23729;DHT22;12045;60.214;24.724;2023-09-19T08:30:52;15.10;99.90
23729;DHT22;12045;60.214;24.724;2023-09-19T08:33:23;15.10;99.90
23729;DHT22;12045;60.214;24.724;2023-09-19T08:35:51;15.10;99.90
23729;DHT22;12045;60.214;24.724;2023-09-19T08:38:19;15.10;99.90
23729;DHT22;12045;60.214;24.724;2023-09-19T08:40:49;15.10;99.90
23729;DHT22;12045;60.214;24.724;2023-09-19T08:43:17;15.20;99.90
23729;DHT22;12045;60.214;24.724;2023-09-19T08:45:45;15.30;99.90
23729;DHT22;12045;60.214;24.724;2023-09-19T08:48:28;15.30;99.90
23729;DHT22;12045;60.214;24.724;2023-09-19T08:51:02;15.30;99.90
23729;DHT22;12045;60.214;24.724;2023-09-19T08:53:49;15.30;99.90
23729;DHT22;12045;60.214;24.724;2023-09-19T08:56:18;15.30;99.90
23729;DHT22;12045;60.214;24.724;2023-09-19T08:58:57;15.20;99.90
23729;DHT22;12045;60.214;24.724;2023-09-19T09:01:31;15.20;99.90
23729;DHT22;12045;60.214;24.724;2023-09-19T09:04:01;15.20;99.90
23729;DHT22;12045;60.214;24.724;2023-09-19T09:06:31;15.20;99.90
23729;DHT22;12045;60.214;24.724;2023-09-19T09:09:00;15.20;99.90
23729;DHT22;12045;60.214;24.724;2023-09-19T09:11:28;15.30;99.90
23729;DHT22;12045;60.214;24.724;2023-09-19T09:13:56;15.10;99.90
23729;DHT22;12045;60.214;24.724;2023-09-19T09:16:25;15.40;99.90
23729;DHT22;12045;60.214;24.724;2023-09-19T09:18:53;15.40;99.90
23729;DHT22;12045;60.214;24.724;2023-09-19T09:21:25;15.50;99.90
23729;DHT22;12045;60.214;24.724;2023-09-19T09:23:52;15.60;99.90
23729;DHT22;12045;60.214;24.724;2023-09-19T09:26:41;15.60;99.90
23729;DHT22;12045;60.214;24.724;2023-09-19T09:29:14;15.60;99.90
23729;DHT22;12045;60.214;24.724;2023-09-19T09:31:49;15.70;99.90
23729;DHT22;12045;60.214;24.724;2023-09-19T09:34:17;15.80;99.90
23729;DHT22;12045;60.214;24.724;2023-09-19T09:36:48;15.80;99.90
23729;DHT22;12045;60.214;24.724;2023-09-19T09:39:30;15.80;99.90
23729;DHT22;12045;60.214;24.724;2023-09-19T09:41:59;15.90;99.90
23729;DHT22;12045;60.214;24.724;2023-09-19T09:44:27;15.80;99.90
23729;DHT22;12045;60.214;24.724;2023-09-19T09:46:59;15.90;99.90
23729;DHT22;12045;60.214;24.724;2023-09-19T09:49:50;16.00;99.90
23729;DHT22;12045;60.214;24.724;2023-09-19T09:52:22;16.00;99.90
23729;DHT22;12045;60.214;24.724;2023-09-19T09:55:02;16.00;99.90
23729;DHT22;12045;60.214;24.724;2023-09-19T09:57:35;16.10;99.90
23729;DHT22;12045;60.214;24.724;2023-09-19T10:00:03;16.10;99.90
23729;DHT22;12045;60.214;24.724;2023-09-19T10:02:40;16.10;99.90
23729;DHT22;12045;60.214;24.724;2023-09-19T10:05:13;16.20;99.90
23729;DHT22;12045;60.214;24.724;2023-09-19T10:07:49;16.20;99.90
23729;DHT22;12045;60.214;24.724;2023-09-19T10:10:42;16.20;99.90
23729;DHT22;12045;60.214;24.724;2023-09-19T10:13:12;16.20;99.90
23729;DHT22;12045;60.214;24.724;2023-09-19T10:15:48;16.20;99.90
23729;DHT22;12045;60.214;24.724;2023-09-19T10:18:22;16.20;99.90
23729;DHT22;12045;60.214;24.724;2023-09-19T10:20:51;16.30;99.90
23729;DHT22;12045;60.214;24.724;2023-09-19T10:23:20;16.30;99.90
23729;DHT22;12045;60.214;24.724;2023-09-19T10:25:54;16.40;99.90
23729;DHT22;12045;60.214;24.724;2023-09-19T10:28:22;16.40;99.90
23729;DHT22;12045;60.214;24.724;2023-09-19T10:30:51;16.50;99.90
23729;DHT22;12045;60.214;24.724;2023-09-19T10:33:24;16.50;99.90
23729;DHT22;12045;60.214;24.724;2023-09-19T10:35:58;16.50;99.90
23729;DHT22;12045;60.214;24.724;2023-09-19T10:38:28;16.60;99.90
23729;DHT22;12045;60.214;24.724;2023-09-19T10:40:57;16.60;99.90
23729;DHT22;12045;60.214;24.724;2023-09-19T10:43:30;17.30;99.90
23729;DHT22;12045;60.214;24.724;2023-09-19T10:46:07;16.60;99.90
23729;DHT22;12045;60.214;24.724;2023-09-19T10:48:35;16.70;99.90
23729;DHT22;12045;60.214;24.724;2023-09-19T10:51:16;16.80;99.90
23729;DHT22;12045;60.214;24.724;2023-09-19T10:53:51;16.80;99.90
23729;DHT22;12045;60.214;24.724;2023-09-19T10:56:30;16.90;99.90
23729;DHT22;12045;60.214;24.724;2023-09-19T10:59:10;16.90;99.90
23729;DHT22;12045;60.214;24.724;2023-09-19T11:01:45;17.00;99.90
23729;DHT22;12045;60.214;24.724;2023-09-19T11:04:26;17.00;99.90
23729;DHT22;12045;60.214;24.724;2023-09-19T11:07:05;17.10;99.90
23729;DHT22;12045;60.214;24.724;2023-09-19T11:09:52;17.10;99.90
23729;DHT22;12045;60.214;24.724;2023-09-19T11:14:59;17.30;99.90
23729;DHT22;12045;60.214;24.724;2023-09-19T11:17:31;17.30;99.90
23729;DHT22;12045;60.214;24.724;2023-09-19T11:30:42;17.50;99.90
23729;DHT22;12045;60.214;24.724;2023-09-19T11:36:10;17.70;99.90
23729;DHT22;12045;60.214;24.724;2023-09-19T11:43:51;17.90;99.90
23729;DHT22;12045;60.214;24.724;2023-09-19T11:46:24;18.00;99.90
23729;DHT22;12045;60.214;24.724;2023-09-19T11:48:52;18.10;99.90
23729;DHT22;12045;60.214;24.724;2023-09-19T11:51:24;18.10;99.90
23729;DHT22;12045;60.214;24.724;2023-09-19T11:54:13;18.00;99.90
23729;DHT22;12045;60.214;24.724;2023-09-19T11:56:46;18.00;99.90
23729;DHT22;12045;60.214;24.724;2023-09-19T11:59:29;17.90;99.90
23729;DHT22;12045;60.214;24.724;2023-09-19T12:02:00;18.00;99.90
23729;DHT22;12045;60.214;24.724;2023-09-19T12:04:40;18.00;99.90
23729;DHT22;12045;60.214;24.724;2023-09-19T12:07:16;18.00;99.90
23729;DHT22;12045;60.214;24.724;2023-09-19T12:09:46;18.00;99.90
23729;DHT22;12045;60.214;24.724;2023-09-19T12:12:26;17.90;99.90
23729;DHT22;12045;60.214;24.724;2023-09-19T12:15:01;17.90;99.90
23729;DHT22;12045;60.214;24.724;2023-09-19T12:17:41;17.90;99.90
23729;DHT22;12045;60.214;24.724;2023-09-19T12:20:12;17.90;99.90
23729;DHT22;12045;60.214;24.724;2023-09-19T12:22:41;17.90;99.90
23729;DHT22;12045;60.214;24.724;2023-09-19T12:25:12;17.90;99.90
23729;DHT22;12045;60.214;24.724;2023-09-19T12:27:47;17.90;99.90
23729;DHT22;12045;60.214;24.724;2023-09-19T12:30:16;17.90;99.90
23729;DHT22;12045;60.214;24.724;2023-09-19T12:32:54;18.00;99.90
23729;DHT22;12045;60.214;24.724;2023-09-19T12:35:31;18.00;99.90
23729;DHT22;12045;60.214;24.724;2023-09-19T12:38:03;18.10;99.90
23729;DHT22;12045;60.214;24.724;2023-09-19T12:40:32;18.20;99.90
23729;DHT22;12045;60.214;24.724;2023-09-19T12:43:01;18.30;99.90
23729;DHT22;12045;60.214;24.724;2023-09-19T12:45:32;18.40;99.90
23729;DHT22;12045;60.214;24.724;2023-09-19T12:51:09;18.60;99.90
23729;DHT22;12045;60.214;24.724;2023-09-19T12:53:44;18.70;99.90
23729;DHT22;12045;60.214;24.724;2023-09-19T12:56:16;18.70;99.90
23729;DHT22;12045;60.214;24.724;2023-09-19T12:58:50;18.80;99.90
23729;DHT22;12045;60.214;24.724;2023-09-19T13:01:18;18.80;99.90
23729;DHT22;12045;60.214;24.724;2023-09-19T13:03:45;18.80;99.90
23729;DHT22;12045;60.214;24.724;2023-09-19T13:06:13;18.70;99.90
23729;DHT22;12045;60.214;24.724;2023-09-19T13:08:44;18.70;99.90
23729;DHT22;12045;60.214;24.724;2023-09-19T13:11:17;18.70;99.90
23729;DHT22;12045;60.214;24.724;2023-09-19T13:17:03;18.60;99.90
23729;DHT22;12045;60.214;24.724;2023-09-19T13:19:45;18.50;99.90
23729;DHT22;12045;60.214;24.724;2023-09-19T13:22:42;18.40;99.90
23729;DHT22;12045;60.214;24.724;2023-09-19T13:25:12;18.40;99.90
23729;DHT22;12045;60.214;24.724;2023-09-19T13:30:26;18.30;99.90
23729;DHT22;12045;60.214;24.724;2023-09-19T13:33:08;18.20;99.90
23729;DHT22;12045;60.214;24.724;2023-09-19T13:35:40;18.10;99.90
23729;DHT22;12045;60.214;24.724;2023-09-19T13:38:08;18.10;99.90
23729;DHT22;12045;60.214;24.724;2023-09-19T13:40:42;18.10;99.90
23729;DHT22;12045;60.214;24.724;2023-09-19T13:43:09;18.00;99.90
23729;DHT22;12045;60.214;24.724;2023-09-19T13:45:39;18.00;99.90
23729;DHT22;12045;60.214;24.724;2023-09-19T13:48:09;17.90;99.90
23729;DHT22;12045;60.214;24.724;2023-09-19T13:50:40;17.80;99.90
23729;DHT22;12045;60.214;24.724;2023-09-19T13:53:10;17.70;99.90
23729;DHT22;12045;60.214;24.724;2023-09-19T13:55:37;17.70;99.90
23729;DHT22;12045;60.214;24.724;2023-09-19T13:58:05;17.60;99.90
23729;DHT22;12045;60.214;24.724;2023-09-19T14:00:34;17.50;99.90
23729;DHT22;12045;60.214;24.724;2023-09-19T14:03:01;17.20;99.90
23729;DHT22;12045;60.214;24.724;2023-09-19T14:05:32;17.50;99.90
23729;DHT22;12045;60.214;24.724;2023-09-19T14:08:00;17.50;99.90
23729;DHT22;12045;60.214;24.724;2023-09-19T14:10:28;17.50;99.90
23729;DHT22;12045;60.214;24.724;2023-09-19T14:12:58;17.50;99.90
23729;DHT22;12045;60.214;24.724;2023-09-19T14:15:27;17.50;99.90
23729;DHT22;12045;60.214;24.724;2023-09-19T14:17:58;17.50;99.90
23729;DHT22;12045;60.214;24.724;2023-09-19T14:20:28;17.40;99.90
23729;DHT22;12045;60.214;24.724;2023-09-19T14:22:56;17.40;99.90
23729;DHT22;12045;60.214;24.724;2023-09-19T14:25:26;17.40;99.90
23729;DHT22;12045;60.214;24.724;2023-09-19T14:27:53;17.40;99.90
23729;DHT22;12045;60.214;24.724;2023-09-19T14:30:22;17.20;99.90
23729;DHT22;12045;60.214;24.724;2023-09-19T14:32:51;17.30;99.90
23729;DHT22;12045;60.214;24.724;2023-09-19T14:35:18;17.20;99.90
23729;DHT22;12045;60.214;24.724;2023-09-19T14:37:46;17.20;99.90
23729;DHT22;12045;60.214;24.724;2023-09-19T14:40:14;17.20;99.90
23729;DHT22;12045;60.214;24.724;2023-09-19T14:42:44;17.30;99.90
23729;DHT22;12045;60.214;24.724;2023-09-19T14:45:12;17.30;99.90
23729;DHT22;12045;60.214;24.724;2023-09-19T14:47:42;17.30;99.90
23729;DHT22;12045;60.214;24.724;2023-09-19T14:50:10;17.40;99.90
23729;DHT22;12045;60.214;24.724;2023-09-19T14:52:39;17.30;99.90
23729;DHT22;12045;60.214;24.724;2023-09-19T14:55:07;17.30;99.90
23729;DHT22;12045;60.214;24.724;2023-09-19T14:57:42;17.30;99.90
23729;DHT22;12045;60.214;24.724;2023-09-19T15:00:12;17.30;99.90
23729;DHT22;12045;60.214;24.724;2023-09-19T15:02:40;17.30;99.90
23729;DHT22;12045;60.214;24.724;2023-09-19T15:05:09;17.30;99.90
23729;DHT22;12045;60.214;24.724;2023-09-19T15:07:36;17.20;99.90
23729;DHT22;12045;60.214;24.724;2023-09-19T15:10:05;17.20;99.90
23729;DHT22;12045;60.214;24.724;2023-09-19T15:12:37;17.20;99.90
23729;DHT22;12045;60.214;24.724;2023-09-19T15:15:07;17.20;99.90
23729;DHT22;12045;60.214;24.724;2023-09-19T15:17:36;17.20;99.90
23729;DHT22;12045;60.214;24.724;2023-09-19T15:20:05;17.20;99.90
23729;DHT22;12045;60.214;24.724;2023-09-19T15:22:34;17.10;99.90
23729;DHT22;12045;60.214;24.724;2023-09-19T15:25:05;17.10;99.90
23729;DHT22;12045;60.214;24.724;2023-09-19T15:27:33;17.10;99.90
23729;DHT22;12045;60.214;24.724;2023-09-19T15:30:01;17.10;99.90
23729;DHT22;12045;60.214;24.724;2023-09-19T15:32:30;17.10;99.90
23729;DHT22;12045;60.214;24.724;2023-09-19T15:34:57;17.10;99.90
23729;DHT22;12045;60.214;24.724;2023-09-19T15:37:26;17.10;99.90
23729;DHT22;12045;60.214;24.724;2023-09-19T15:39:54;17.10;99.90
23729;DHT22;12045;60.214;24.724;2023-09-19T15:42:22;17.10;99.90
23729;DHT22;12045;60.214;24.724;2023-09-19T15:44:49;17.10;99.90
23729;DHT22;12045;60.214;24.724;2023-09-19T15:47:18;17.20;99.90
23729;DHT22;12045;60.214;24.724;2023-09-19T15:49:48;17.20;99.90
23729;DHT22;12045;60.214;24.724;2023-09-19T15:52:17;17.20;99.90
23729;DHT22;12045;60.214;24.724;2023-09-19T15:54:45;17.20;99.90
23729;DHT22;12045;60.214;24.724;2023-09-19T15:57:13;17.20;99.90
23729;DHT22;12045;60.214;24.724;2023-09-19T15:59:41;17.20;99.90
23729;DHT22;12045;60.214;24.724;2023-09-19T16:02:09;17.20;99.90
23729;DHT22;12045;60.214;24.724;2023-09-19T16:04:36;17.20;99.90
23729;DHT22;12045;60.214;24.724;2023-09-19T16:07:05;17.00;99.90
23729;DHT22;12045;60.214;24.724;2023-09-19T16:09:34;17.00;99.90
23729;DHT22;12045;60.214;24.724;2023-09-19T16:12:02;17.00;99.90
23729;DHT22;12045;60.214;24.724;2023-09-19T16:14:30;17.00;99.90
23729;DHT22;12045;60.214;24.724;2023-09-19T16:16:58;17.00;99.90
23729;DHT22;12045;60.214;24.724;2023-09-19T16:19:27;17.00;99.90
23729;DHT22;12045;60.214;24.724;2023-09-19T16:21:54;17.00;99.90
23729;DHT22;12045;60.214;24.724;2023-09-19T16:24:23;17.00;99.90
23729;DHT22;12045;60.214;24.724;2023-09-19T16:26:51;17.00;99.90